Muscle Shoals, AL (35661)

4:08 PM CST on February 07, 2016 (GMT -0600)
Jackson Heights | | Change Station
CLOSE
Current Station
Personal Weather Station
Location: Muscle Shoals, AL
Elevation: 525 ft
Nearby Weather Stations

Elev 525 ft 34.75 °N, 87.64 °W | Updated 30 seconds ago

Clear
Clear
56.8 °F
Feels Like 56.8 °F
N
4.0
Wind Variable Wind from WSW
Gusts 4.9 mph

Today
High -- | Low -- °F
--% Chance of Precip.
Yesterday
High -- | Low -- °F
Precip. -- in
Pressure 30.04 in
Visibility 10.0 miles
Clouds Clear
Dew Point 20 °F
Humidity 24%
Rainfall 0.00 in
Snow Depth Not available.
6:44 AM 5:25 PM
Waning Crescent, 1% visible
METAR KMSL 072153Z AUTO 24010KT 10SM CLR 14/M07 A3004 RMK AO2 SLP172 T01391072
Pressure 30.04 in
Visibility 10.0 miles
Clouds Clear
Dew Point 20 °F
Humidity 24%
Rainfall 0.00 in
Snow Depth Not available.
6:44 AM 5:25 PM
Waning Crescent, 1% visible
METAR KMSL 072153Z AUTO 24010KT 10SM CLR 14/M07 A3004 RMK AO2 SLP172 T01391072

10-Day Weather Forecast

Almanac

Astronomy

Feb. 07, 2016 Rise Set
Actual Time
Civil Twilight
Nautical Twilight
Astronomical Twilight
Moon
Length of Visible Light
Length of Day
Tomorrow will be .
, % of the Moon is Illuminated

Today's Extremes

State Highs State Lows

Community

WunderPhotos

Upload Photos

1,891,304 photos uploaded!

WunderBlog® & News

Nearby

Air Quality

  Air Quality AQ Index Pollutant
Not available.

Snow Depth

Station Depth Elevation

Earthquake Activity

City Distance Mag. Time & Date
Minimum magnitude displayed is 2.5.

Coastal Water Temperatures

Place Temperature

Stations

Nearby Weather Stations

Station Location Temp. Windchill Dew Point Humidity Wind Precip. Elev Updated Type
                   

Watches & Warnings

There are currently no watches in effect.